San Diego, CA (92145)

3:02 PM PDT on August 25, 2016 (GMT -0700)
Mira Mesa Eagle Rock | | Change Station

Elev 440 ft 32.90 °N, 117.14 °W | Updated 9 seconds ago

Scattered Clouds
Scattered Clouds
79.2 °F
Feels Like 81 °F
N
5.8
Wind Variable Wind from WSW
Gusts 8.3 mph

Today
High -- | Low -- °F
--% Chance of Precip.
Yesterday
High -- | Low -- °F
Precip. -- in
Pressure 29.91 in
Visibility 10.0 miles
Clouds Scattered Clouds 2000 ft
Scattered Clouds 10000 ft
Heat Index 81 °F
Dew Point 62 °F
Humidity 55%
Rainfall 0.00 in
Snow Depth Not available.
6:19 AM 7:21 PM
Last Quarter, 41% visible
METAR KNKX 252155Z 29009KT 10SM SCT020 SCT100 23/14 A2993 RMK AO2 SLP128 T02330144
Pressure 29.91 in
Visibility 10.0 miles
Clouds Scattered Clouds 2000 ft
Scattered Clouds 10000 ft
Heat Index 81 °F
Dew Point 62 °F
Humidity 55%
Rainfall 0.00 in
Snow Depth Not available.
6:19 AM 7:21 PM
Last Quarter, 41% visible
METAR KNKX 252155Z 29009KT 10SM SCT020 SCT100 23/14 A2993 RMK AO2 SLP128 T02330144
A tropical disturbance pushing toward the Bahamas, is expected to develop into a tropical depression or storm, and will likely target Florida and the Gulf Coast this weekend into next week.

Right now, the disturbance remains a broad area of low pressure pushing through the Dominican Republic and Haiti, headed toward the southeast Bahamas. Rainfall totals over 3 inches (with locally higher amounts) are expected in HispaƱiola, particularly over elevated terrain.

10-Day Weather Forecast

Almanac

Astronomy

Aug. 25, 2016 Rise Set
Actual Time
Civil Twilight
Nautical Twilight
Astronomical Twilight
Moon
Length of Visible Light
Length of Day
Tomorrow will be .
, % of the Moon is Illuminated

Today's Extremes

State Highs State Lows

Community

WunderPhotos

Upload Photos

1,934,951 photos uploaded!

WunderBlog® & News

Nearby

Air Quality

  Air Quality AQ Index Pollutant
Not available.

Snow Depth

Station Depth Elevation

Earthquake Activity

City Distance Mag. Time & Date
Minimum magnitude displayed is 2.5.

Coastal Water Temperatures

Place Temperature

Stations

Nearby Weather Stations

Station Location Temp. Windchill Dew Point Humidity Wind Precip. Elev Updated Type
                   

Watches & Warnings

There are currently no watches in effect.